Hector Alvarez

Olheiro - Guadalajara
4 Abr 2028
Terça-feira
Processo

Personalidade

Adaptabilidade (18) Ambição (10) Controvérsia (10) Lealdade (8) Pressão (1) Profissionalismo (11) Espírito Esportivo (1) Temperamento (12)

Perfil

Estilo de Treinamento Democrático
Licença Continental A
Determinação 11
Gestão de Pessoas 15
Motivação 9
Disciplina 9
Satisfação no Trabalho
100%
Fadiga
0%
Função Olheiro
Salário 63.2K p/s
Contrato 14.03.2030

Desempenho

Comportamento Bom
Eficácia do Treinamento
39%
Desenvolvimento do Jogador
55%
Prevenção de Lesões
45%
Implementação Tática
35%

Monitorando agora

40
Jogador Clube Status Habilidade Confiança Observado Última observação Último voto
Francisco Triver River Plate Ativo 86 / 100 40% 1 27.01.2028 -
Kauã Moraes Cruzeiro Ativo 135 / 132 40% 1 27.01.2028 -
Jan Virgili Club Brugge Ativo 129 / 133 40% 2 26.01.2028 -
Pedro Zenit Ativo 134 / 141 40% 1 26.01.2028 -
Luka Andrade Montevideo City Torque Ativo 96 / 109 40% 1 26.01.2028 -
Sidiki Chérif Coventry City Ativo 138 / 134 40% 2 25.01.2028 -
Gabriel Lopes Santiago Wanderers Ativo 97 / 98 40% 3 25.01.2028 -
Henrique Carmo CSKA Moscow Ativo 137 / 128 40% 1 25.01.2028 -
Dilan Godoy Vélez Ativo 113 / 120 40% 1 17.01.2028 -
Aarón Ochoa Málaga Ativo 121 / 131 40% 1 17.01.2028 -
Chupete Málaga Ativo 124 / 131 40% 1 02.01.2028 -
Javier Mena Deportivo Pereira Ativo 105 / 103 40% 1 31.08.2027 -
Maren Kefas Plateau United Ativo 89 / 98 40% 1 31.08.2027 -
Felipe Serrés Wanderers Ativo 91 / 100 40% 1 24.08.2027 -
Santos Torrealba Caracas Ativo 91 / 97 40% 1 24.08.2027 -
Facundo Balatti Penarol Ativo 96 / 108 40% 1 17.08.2027 -
Jorge Salinas Racing Santander Ativo 132 / 140 40% 3 12.08.2027 -
Lander Astiazarán Real Sociedad Ativo 102 / 124 40% 2 12.08.2027 -
Teo Rodríguez Pagano San Lorenzo Ativo 124 / 119 40% 1 12.08.2027 -
Calum Agius Crewe Alexandra Ativo 110 / 100 40% 3 09.08.2027 -
Yusi Alavés Ativo 143 / 144 40% 3 09.08.2027 -
Joel Canchimbo Barranquilla Ativo 113 / 112 40% 3 05.08.2027 -
Wilfred Correa Caracas Ativo 101 / 96 40% 1 05.08.2027 -
Riley Owen Bristol Rovers Ativo 95 / 109 40% 3 04.08.2027 -
Ryan Oné Sheffield United Ativo 107 / 118 40% 1 26.07.2027 -
Gianluca Prestianni Benfica Ativo 132 / 138 40% 1 26.07.2027 -
Gorka Gorosabel Real Sociedad Ativo 121 / 113 40% 3 25.07.2027 -
Othmane Maamma Watford Ativo 117 / 127 40% 1 22.07.2027 -
Ollie Scarles West Ham United Ativo 136 / 140 40% 1 22.07.2027 -
Rodrigo Mora AS Roma Ativo 137 / 151 40% 1 20.07.2027 -
Joseph Opoku Swansea City Ativo 116 / 119 40% 1 18.07.2027 -
Sheldon Dinesh Stockport County Ativo 101 / 106 40% 1 17.07.2027 -
Oumar Camara Vitoria Guimaraes Ativo 131 / 133 40% 2 16.07.2027 -
Jonathan Asp-Jensen Deportivo La Coruña Ativo 128 / 128 40% 1 15.07.2027 -
Samir El Mourabet RC Strasbourg Ativo 134 / 133 40% 1 15.07.2027 -
Mfundo Vilakazi Kaizer Chiefs Ativo 121 / 117 40% 1 14.07.2027 -
Jay Robinson Southampton Ativo 118 / 131 40% 1 14.07.2027 -
Harrison Bettoni Wigan Athletic Ativo 100 / 112 40% 1 12.07.2027 -
Leighton Clarkson Blackpool Ativo 129 / 125 40% 1 21.06.2027 -
Bongani Kekana SuperSport United Ativo 126 / 134 40% 1 01.06.2027 -